Mahnomen, Minnesota
Current Conditions -  °F | °C
As of 11:55 PM on Saturday 25 Oct 2014 (Local Time) from K3N8 Reporting Station
Clear Clear  
Wind Chill: 27°   Ceiling: Unl
Heat Index: 33°   Visibility: 10mi
Dew Point: 24°   Wind: 7mph
Humidity: 70%   Direction: 180°S
Pressure: 30"   Gusts: NA
Location:  47.32°N, 95.97°W
Report Text: K3N8 260455Z AUTO 18006KT 10SM CLR 01/M04 A3000 RMK AO2 T00051044
Loading
Personal Weather Stations






























Interactive Weather Map
Tropical Storm Tracking
New forecast layout! Learn more

10-Day Weather Forecast

Advertisements
Track Severe Weather on mobile